sensor_id;sensor_type;location;lat;lon;timestamp;P1;durP1;ratioP1;P2;durP2;ratioP2
10991;SDS011;5549;47.028;15.514;2023-12-20T00:01:40;4.22;;;1.23;;
10991;SDS011;5549;47.028;15.514;2023-12-20T00:04:08;4.43;;;1.45;;
10991;SDS011;5549;47.028;15.514;2023-12-20T00:06:35;3.08;;;1.00;;
10991;SDS011;5549;47.028;15.514;2023-12-20T00:09:04;3.80;;;1.17;;
10991;SDS011;5549;47.028;15.514;2023-12-20T00:11:33;5.32;;;1.13;;
10991;SDS011;5549;47.028;15.514;2023-12-20T00:14:03;3.78;;;1.10;;
10991;SDS011;5549;47.028;15.514;2023-12-20T00:16:32;4.10;;;1.20;;
10991;SDS011;5549;47.028;15.514;2023-12-20T00:18:59;2.75;;;0.85;;
10991;SDS011;5549;47.028;15.514;2023-12-20T00:21:27;4.53;;;1.30;;
10991;SDS011;5549;47.028;15.514;2023-12-20T00:23:55;3.58;;;1.00;;
10991;SDS011;5549;47.028;15.514;2023-12-20T00:26:23;3.63;;;1.13;;
10991;SDS011;5549;47.028;15.514;2023-12-20T00:28:52;3.58;;;0.85;;
10991;SDS011;5549;47.028;15.514;2023-12-20T00:31:19;6.45;;;1.27;;
10991;SDS011;5549;47.028;15.514;2023-12-20T00:33:47;3.65;;;0.95;;
10991;SDS011;5549;47.028;15.514;2023-12-20T00:36:15;4.20;;;1.13;;
10991;SDS011;5549;47.028;15.514;2023-12-20T00:38:42;3.63;;;1.20;;
10991;SDS011;5549;47.028;15.514;2023-12-20T00:41:10;3.28;;;1.13;;
10991;SDS011;5549;47.028;15.514;2023-12-20T00:43:39;6.55;;;1.52;;
10991;SDS011;5549;47.028;15.514;2023-12-20T00:46:08;4.30;;;1.30;;
10991;SDS011;5549;47.028;15.514;2023-12-20T00:48:38;4.55;;;1.60;;
10991;SDS011;5549;47.028;15.514;2023-12-20T00:51:07;4.60;;;1.48;;
10991;SDS011;5549;47.028;15.514;2023-12-20T00:53:35;4.05;;;1.20;;
10991;SDS011;5549;47.028;15.514;2023-12-20T00:56:02;7.63;;;1.55;;
10991;SDS011;5549;47.028;15.514;2023-12-20T00:58:30;5.00;;;1.27;;
10991;SDS011;5549;47.028;15.514;2023-12-20T01:00:58;4.45;;;1.45;;
10991;SDS011;5549;47.028;15.514;2023-12-20T01:03:32;5.95;;;1.48;;
10991;SDS011;5549;47.028;15.514;2023-12-20T01:06:01;4.68;;;1.30;;
10991;SDS011;5549;47.028;15.514;2023-12-20T01:08:32;5.20;;;1.13;;
10991;SDS011;5549;47.028;15.514;2023-12-20T01:11:03;3.20;;;1.10;;
10991;SDS011;5549;47.028;15.514;2023-12-20T01:13:32;3.10;;;1.10;;
10991;SDS011;5549;47.028;15.514;2023-12-20T01:16:11;4.53;;;1.35;;
10991;SDS011;5549;47.028;15.514;2023-12-20T01:18:47;2.40;;;0.70;;
10991;SDS011;5549;47.028;15.514;2023-12-20T01:23:48;3.50;;;1.20;;
10991;SDS011;5549;47.028;15.514;2023-12-20T01:26:18;3.95;;;1.38;;
10991;SDS011;5549;47.028;15.514;2023-12-20T01:28:50;4.05;;;1.05;;
10991;SDS011;5549;47.028;15.514;2023-12-20T01:31:26;3.30;;;1.08;;
10991;SDS011;5549;47.028;15.514;2023-12-20T01:33:57;3.90;;;1.33;;
10991;SDS011;5549;47.028;15.514;2023-12-20T01:36:29;5.30;;;1.45;;
10991;SDS011;5549;47.028;15.514;2023-12-20T01:39:03;4.00;;;1.05;;
10991;SDS011;5549;47.028;15.514;2023-12-20T01:41:37;3.65;;;1.50;;
10991;SDS011;5549;47.028;15.514;2023-12-20T01:44:10;7.50;;;1.88;;
10991;SDS011;5549;47.028;15.514;2023-12-20T01:46:41;6.30;;;1.30;;
10991;SDS011;5549;47.028;15.514;2023-12-20T01:49:11;3.70;;;1.40;;
10991;SDS011;5549;47.028;15.514;2023-12-20T01:51:41;4.45;;;1.50;;
10991;SDS011;5549;47.028;15.514;2023-12-20T01:54:10;4.80;;;1.80;;
10991;SDS011;5549;47.028;15.514;2023-12-20T01:56:39;4.28;;;1.35;;
10991;SDS011;5549;47.028;15.514;2023-12-20T01:59:07;5.07;;;1.60;;
10991;SDS011;5549;47.028;15.514;2023-12-20T02:01:41;5.43;;;1.17;;
10991;SDS011;5549;47.028;15.514;2023-12-20T02:04:30;4.75;;;0.82;;
10991;SDS011;5549;47.028;15.514;2023-12-20T02:06:58;5.25;;;1.55;;
10991;SDS011;5549;47.028;15.514;2023-12-20T02:09:27;3.08;;;0.80;;
10991;SDS011;5549;47.028;15.514;2023-12-20T02:11:55;5.75;;;1.35;;
10991;SDS011;5549;47.028;15.514;2023-12-20T02:14:23;4.65;;;0.98;;
10991;SDS011;5549;47.028;15.514;2023-12-20T02:16:51;4.90;;;1.20;;
10991;SDS011;5549;47.028;15.514;2023-12-20T02:19:19;4.43;;;1.23;;
10991;SDS011;5549;47.028;15.514;2023-12-20T02:21:50;4.05;;;1.15;;
10991;SDS011;5549;47.028;15.514;2023-12-20T02:24:33;4.50;;;1.40;;
10991;SDS011;5549;47.028;15.514;2023-12-20T02:27:01;3.80;;;1.13;;
10991;SDS011;5549;47.028;15.514;2023-12-20T02:29:32;5.38;;;1.05;;
10991;SDS011;5549;47.028;15.514;2023-12-20T02:32:00;3.67;;;1.30;;
10991;SDS011;5549;47.028;15.514;2023-12-20T02:34:28;3.88;;;0.80;;
10991;SDS011;5549;47.028;15.514;2023-12-20T02:36:57;4.80;;;0.98;;
10991;SDS011;5549;47.028;15.514;2023-12-20T02:39:25;3.22;;;0.95;;
10991;SDS011;5549;47.028;15.514;2023-12-20T02:41:53;5.15;;;1.30;;
10991;SDS011;5549;47.028;15.514;2023-12-20T02:44:20;4.22;;;0.90;;
10991;SDS011;5549;47.028;15.514;2023-12-20T02:46:48;3.60;;;1.00;;
10991;SDS011;5549;47.028;15.514;2023-12-20T02:49:15;3.10;;;1.15;;
10991;SDS011;5549;47.028;15.514;2023-12-20T02:51:43;4.32;;;0.82;;
10991;SDS011;5549;47.028;15.514;2023-12-20T02:54:13;3.88;;;1.20;;
10991;SDS011;5549;47.028;15.514;2023-12-20T02:56:40;4.78;;;1.27;;
10991;SDS011;5549;47.028;15.514;2023-12-20T02:59:08;2.72;;;0.77;;
10991;SDS011;5549;47.028;15.514;2023-12-20T03:01:37;3.65;;;0.82;;
10991;SDS011;5549;47.028;15.514;2023-12-20T03:06:39;3.20;;;0.93;;
10991;SDS011;5549;47.028;15.514;2023-12-20T03:09:07;2.80;;;0.82;;
10991;SDS011;5549;47.028;15.514;2023-12-20T03:11:36;7.03;;;0.98;;
10991;SDS011;5549;47.028;15.514;2023-12-20T03:14:03;4.25;;;1.08;;
10991;SDS011;5549;47.028;15.514;2023-12-20T03:16:31;3.03;;;0.98;;
10991;SDS011;5549;47.028;15.514;2023-12-20T03:19:00;4.65;;;1.00;;
10991;SDS011;5549;47.028;15.514;2023-12-20T03:21:28;5.35;;;0.90;;
10991;SDS011;5549;47.028;15.514;2023-12-20T03:23:56;3.47;;;1.05;;
10991;SDS011;5549;47.028;15.514;2023-12-20T03:26:24;4.78;;;0.90;;
10991;SDS011;5549;47.028;15.514;2023-12-20T03:28:53;3.03;;;1.00;;
10991;SDS011;5549;47.028;15.514;2023-12-20T03:31:20;2.53;;;0.93;;
10991;SDS011;5549;47.028;15.514;2023-12-20T03:33:48;3.83;;;0.90;;
10991;SDS011;5549;47.028;15.514;2023-12-20T03:36:16;2.80;;;0.82;;
10991;SDS011;5549;47.028;15.514;2023-12-20T03:38:44;3.72;;;0.85;;
10991;SDS011;5549;47.028;15.514;2023-12-20T03:41:11;3.33;;;1.10;;
10991;SDS011;5549;47.028;15.514;2023-12-20T03:43:41;3.22;;;0.98;;
10991;SDS011;5549;47.028;15.514;2023-12-20T03:46:10;3.17;;;0.90;;
10991;SDS011;5549;47.028;15.514;2023-12-20T03:48:38;3.60;;;0.70;;
10991;SDS011;5549;47.028;15.514;2023-12-20T03:51:05;3.80;;;0.95;;
10991;SDS011;5549;47.028;15.514;2023-12-20T03:53:33;3.60;;;1.05;;
10991;SDS011;5549;47.028;15.514;2023-12-20T03:56:00;6.60;;;1.38;;
10991;SDS011;5549;47.028;15.514;2023-12-20T03:58:29;2.92;;;0.80;;
10991;SDS011;5549;47.028;15.514;2023-12-20T04:00:56;3.22;;;0.73;;
10991;SDS011;5549;47.028;15.514;2023-12-20T04:03:25;5.00;;;1.00;;
10991;SDS011;5549;47.028;15.514;2023-12-20T04:05:54;3.63;;;1.23;;
10991;SDS011;5549;47.028;15.514;2023-12-20T04:08:21;2.88;;;0.80;;
10991;SDS011;5549;47.028;15.514;2023-12-20T04:10:49;2.40;;;0.80;;
10991;SDS011;5549;47.028;15.514;2023-12-20T04:13:18;3.22;;;0.77;;
10991;SDS011;5549;47.028;15.514;2023-12-20T04:15:46;4.18;;;1.00;;
10991;SDS011;5549;47.028;15.514;2023-12-20T04:18:15;3.00;;;0.93;;
10991;SDS011;5549;47.028;15.514;2023-12-20T04:20:44;3.60;;;1.10;;
10991;SDS011;5549;47.028;15.514;2023-12-20T04:23:12;5.15;;;0.65;;
10991;SDS011;5549;47.028;15.514;2023-12-20T04:25:40;2.22;;;0.65;;
10991;SDS011;5549;47.028;15.514;2023-12-20T04:28:07;2.20;;;0.77;;
10991;SDS011;5549;47.028;15.514;2023-12-20T04:30:35;3.65;;;1.10;;
10991;SDS011;5549;47.028;15.514;2023-12-20T04:33:02;3.63;;;0.80;;
10991;SDS011;5549;47.028;15.514;2023-12-20T04:35:30;3.38;;;0.85;;
10991;SDS011;5549;47.028;15.514;2023-12-20T04:37:59;3.97;;;0.95;;
10991;SDS011;5549;47.028;15.514;2023-12-20T04:40:26;3.40;;;0.65;;
10991;SDS011;5549;47.028;15.514;2023-12-20T04:42:54;4.32;;;1.00;;
10991;SDS011;5549;47.028;15.514;2023-12-20T04:45:21;5.47;;;0.90;;
10991;SDS011;5549;47.028;15.514;2023-12-20T04:47:50;3.88;;;0.90;;
10991;SDS011;5549;47.028;15.514;2023-12-20T04:50:18;2.20;;;0.70;;
10991;SDS011;5549;47.028;15.514;2023-12-20T04:52:47;3.83;;;0.90;;
10991;SDS011;5549;47.028;15.514;2023-12-20T04:55:16;5.45;;;1.10;;
10991;SDS011;5549;47.028;15.514;2023-12-20T04:57:44;6.30;;;1.23;;
10991;SDS011;5549;47.028;15.514;2023-12-20T05:00:12;3.90;;;0.90;;
10991;SDS011;5549;47.028;15.514;2023-12-20T05:02:41;4.00;;;1.13;;
10991;SDS011;5549;47.028;15.514;2023-12-20T05:05:08;4.18;;;1.27;;
10991;SDS011;5549;47.028;15.514;2023-12-20T05:07:36;4.40;;;1.17;;
10991;SDS011;5549;47.028;15.514;2023-12-20T05:10:04;4.28;;;1.10;;
10991;SDS011;5549;47.028;15.514;2023-12-20T05:12:35;3.92;;;1.30;;
10991;SDS011;5549;47.028;15.514;2023-12-20T05:15:02;5.05;;;1.08;;
10991;SDS011;5549;47.028;15.514;2023-12-20T05:17:32;4.03;;;1.23;;
10991;SDS011;5549;47.028;15.514;2023-12-20T05:20:00;2.78;;;0.73;;
10991;SDS011;5549;47.028;15.514;2023-12-20T05:22:27;2.85;;;0.82;;
10991;SDS011;5549;47.028;15.514;2023-12-20T05:24:55;3.47;;;0.93;;
10991;SDS011;5549;47.028;15.514;2023-12-20T05:27:22;4.00;;;0.90;;
10991;SDS011;5549;47.028;15.514;2023-12-20T05:29:54;3.72;;;0.95;;
10991;SDS011;5549;47.028;15.514;2023-12-20T05:32:23;4.53;;;1.13;;
10991;SDS011;5549;47.028;15.514;2023-12-20T05:34:50;1.73;;;0.65;;
10991;SDS011;5549;47.028;15.514;2023-12-20T05:37:18;2.63;;;0.65;;
10991;SDS011;5549;47.028;15.514;2023-12-20T05:39:46;5.43;;;1.23;;
10991;SDS011;5549;47.028;15.514;2023-12-20T05:42:13;2.75;;;0.77;;
10991;SDS011;5549;47.028;15.514;2023-12-20T05:44:41;3.65;;;1.02;;
10991;SDS011;5549;47.028;15.514;2023-12-20T05:47:10;3.15;;;1.02;;
10991;SDS011;5549;47.028;15.514;2023-12-20T05:49:37;1.85;;;0.60;;
10991;SDS011;5549;47.028;15.514;2023-12-20T05:52:05;4.68;;;1.13;;
10991;SDS011;5549;47.028;15.514;2023-12-20T05:54:32;3.75;;;0.98;;
10991;SDS011;5549;47.028;15.514;2023-12-20T05:57:00;2.50;;;0.82;;
10991;SDS011;5549;47.028;15.514;2023-12-20T05:59:28;2.83;;;1.00;;
10991;SDS011;5549;47.028;15.514;2023-12-20T06:01:55;1.98;;;0.65;;
10991;SDS011;5549;47.028;15.514;2023-12-20T06:04:24;3.03;;;0.98;;
10991;SDS011;5549;47.028;15.514;2023-12-20T06:06:52;3.55;;;1.05;;
10991;SDS011;5549;47.028;15.514;2023-12-20T06:09:19;6.22;;;1.90;;
10991;SDS011;5549;47.028;15.514;2023-12-20T06:11:47;3.28;;;0.30;;
10991;SDS011;5549;47.028;15.514;2023-12-20T06:14:15;1.05;;;0.40;;
10991;SDS011;5549;47.028;15.514;2023-12-20T06:16:43;0.50;;;0.20;;
10991;SDS011;5549;47.028;15.514;2023-12-20T06:19:11;2.20;;;0.57;;
10991;SDS011;5549;47.028;15.514;2023-12-20T06:21:42;3.47;;;0.75;;
10991;SDS011;5549;47.028;15.514;2023-12-20T06:24:10;2.92;;;0.88;;
10991;SDS011;5549;47.028;15.514;2023-12-20T06:26:39;1.95;;;0.40;;
10991;SDS011;5549;47.028;15.514;2023-12-20T06:29:07;1.85;;;0.45;;
10991;SDS011;5549;47.028;15.514;2023-12-20T06:31:35;3.20;;;0.50;;
10991;SDS011;5549;47.028;15.514;2023-12-20T06:34:03;2.65;;;0.45;;
10991;SDS011;5549;47.028;15.514;2023-12-20T06:36:30;0.95;;;0.15;;
10991;SDS011;5549;47.028;15.514;2023-12-20T06:38:59;7.07;;;0.82;;
10991;SDS011;5549;47.028;15.514;2023-12-20T06:41:27;3.00;;;0.38;;
10991;SDS011;5549;47.028;15.514;2023-12-20T06:43:54;2.00;;;0.50;;
10991;SDS011;5549;47.028;15.514;2023-12-20T06:46:22;1.63;;;0.25;;
10991;SDS011;5549;47.028;15.514;2023-12-20T06:48:49;2.38;;;0.35;;
10991;SDS011;5549;47.028;15.514;2023-12-20T06:51:19;1.55;;;0.30;;
10991;SDS011;5549;47.028;15.514;2023-12-20T06:53:50;1.60;;;0.20;;
10991;SDS011;5549;47.028;15.514;2023-12-20T06:56:19;1.67;;;0.40;;
10991;SDS011;5549;47.028;15.514;2023-12-20T06:58:49;2.78;;;0.50;;
10991;SDS011;5549;47.028;15.514;2023-12-20T07:01:17;2.30;;;0.55;;
10991;SDS011;5549;47.028;15.514;2023-12-20T07:03:44;1.88;;;0.47;;
10991;SDS011;5549;47.028;15.514;2023-12-20T07:06:14;2.47;;;0.45;;
10991;SDS011;5549;47.028;15.514;2023-12-20T07:08:42;2.30;;;0.38;;
10991;SDS011;5549;47.028;15.514;2023-12-20T07:11:10;2.53;;;0.50;;
10991;SDS011;5549;47.028;15.514;2023-12-20T07:13:38;2.97;;;0.63;;
10991;SDS011;5549;47.028;15.514;2023-12-20T07:16:08;2.40;;;0.45;;
10991;SDS011;5549;47.028;15.514;2023-12-20T07:18:36;3.22;;;0.50;;
10991;SDS011;5549;47.028;15.514;2023-12-20T07:21:03;3.47;;;0.90;;
10991;SDS011;5549;47.028;15.514;2023-12-20T07:23:33;6.18;;;0.70;;
10991;SDS011;5549;47.028;15.514;2023-12-20T07:26:01;2.90;;;0.85;;
10991;SDS011;5549;47.028;15.514;2023-12-20T07:28:29;3.92;;;0.98;;
10991;SDS011;5549;47.028;15.514;2023-12-20T07:30:58;3.00;;;0.65;;
10991;SDS011;5549;47.028;15.514;2023-12-20T07:33:26;3.55;;;0.68;;
10991;SDS011;5549;47.028;15.514;2023-12-20T07:35:55;1.98;;;0.60;;
10991;SDS011;5549;47.028;15.514;2023-12-20T07:38:24;2.72;;;0.60;;
10991;SDS011;5549;47.028;15.514;2023-12-20T07:40:51;2.83;;;0.60;;
10991;SDS011;5549;47.028;15.514;2023-12-20T07:43:19;2.15;;;0.73;;
10991;SDS011;5549;47.028;15.514;2023-12-20T07:45:47;2.67;;;0.65;;
10991;SDS011;5549;47.028;15.514;2023-12-20T07:48:16;3.03;;;0.80;;
10991;SDS011;5549;47.028;15.514;2023-12-20T07:50:44;2.60;;;0.70;;
10991;SDS011;5549;47.028;15.514;2023-12-20T07:53:11;3.38;;;0.63;;
10991;SDS011;5549;47.028;15.514;2023-12-20T07:55:41;2.78;;;0.80;;
10991;SDS011;5549;47.028;15.514;2023-12-20T07:58:09;5.53;;;0.80;;
10991;SDS011;5549;47.028;15.514;2023-12-20T08:00:36;6.13;;;1.00;;
10991;SDS011;5549;47.028;15.514;2023-12-20T08:03:04;2.55;;;0.80;;
10991;SDS011;5549;47.028;15.514;2023-12-20T08:05:36;2.03;;;0.65;;
10991;SDS011;5549;47.028;15.514;2023-12-20T08:08:06;5.70;;;1.13;;
10991;SDS011;5549;47.028;15.514;2023-12-20T08:10:33;4.68;;;1.13;;
10991;SDS011;5549;47.028;15.514;2023-12-20T08:13:02;3.83;;;1.05;;
10991;SDS011;5549;47.028;15.514;2023-12-20T08:15:30;2.72;;;1.02;;
10991;SDS011;5549;47.028;15.514;2023-12-20T08:17:57;3.55;;;1.00;;
10991;SDS011;5549;47.028;15.514;2023-12-20T08:20:25;3.28;;;1.10;;
10991;SDS011;5549;47.028;15.514;2023-12-20T08:22:54;2.60;;;1.10;;
10991;SDS011;5549;47.028;15.514;2023-12-20T08:25:21;4.90;;;1.02;;
10991;SDS011;5549;47.028;15.514;2023-12-20T08:27:49;2.53;;;1.00;;
10991;SDS011;5549;47.028;15.514;2023-12-20T08:30:17;3.83;;;1.08;;
10991;SDS011;5549;47.028;15.514;2023-12-20T08:32:47;4.53;;;1.20;;
10991;SDS011;5549;47.028;15.514;2023-12-20T08:35:15;4.72;;;1.48;;
10991;SDS011;5549;47.028;15.514;2023-12-20T08:37:45;5.20;;;1.30;;
10991;SDS011;5549;47.028;15.514;2023-12-20T08:40:14;3.97;;;1.23;;
10991;SDS011;5549;47.028;15.514;2023-12-20T08:42:42;5.18;;;1.45;;
10991;SDS011;5549;47.028;15.514;2023-12-20T08:45:10;3.30;;;1.30;;
10991;SDS011;5549;47.028;15.514;2023-12-20T08:47:37;3.38;;;1.17;;
10991;SDS011;5549;47.028;15.514;2023-12-20T08:50:06;4.10;;;1.08;;
10991;SDS011;5549;47.028;15.514;2023-12-20T08:52:34;3.90;;;1.25;;
10991;SDS011;5549;47.028;15.514;2023-12-20T08:55:02;4.85;;;1.60;;
10991;SDS011;5549;47.028;15.514;2023-12-20T08:57:32;5.00;;;1.77;;
10991;SDS011;5549;47.028;15.514;2023-12-20T08:59:59;3.70;;;1.60;;
10991;SDS011;5549;47.028;15.514;2023-12-20T09:02:27;4.32;;;1.40;;
10991;SDS011;5549;47.028;15.514;2023-12-20T09:04:55;4.78;;;1.90;;
10991;SDS011;5549;47.028;15.514;2023-12-20T09:07:22;4.18;;;1.65;;
10991;SDS011;5549;47.028;15.514;2023-12-20T09:09:51;4.05;;;1.88;;
10991;SDS011;5549;47.028;15.514;2023-12-20T09:12:21;4.78;;;1.70;;
10991;SDS011;5549;47.028;15.514;2023-12-20T09:14:50;3.67;;;1.48;;
10991;SDS011;5549;47.028;15.514;2023-12-20T09:17:18;4.78;;;1.77;;
10991;SDS011;5549;47.028;15.514;2023-12-20T09:19:48;5.72;;;2.30;;
10991;SDS011;5549;47.028;15.514;2023-12-20T09:22:17;7.00;;;2.55;;
10991;SDS011;5549;47.028;15.514;2023-12-20T09:24:45;6.18;;;2.35;;
10991;SDS011;5549;47.028;15.514;2023-12-20T09:27:12;4.75;;;1.92;;
10991;SDS011;5549;47.028;15.514;2023-12-20T09:29:40;6.10;;;1.67;;
10991;SDS011;5549;47.028;15.514;2023-12-20T09:32:09;4.57;;;1.98;;
10991;SDS011;5549;47.028;15.514;2023-12-20T09:34:36;6.47;;;2.83;;
10991;SDS011;5549;47.028;15.514;2023-12-20T09:37:04;7.05;;;2.35;;
10991;SDS011;5549;47.028;15.514;2023-12-20T09:39:33;6.47;;;2.42;;
10991;SDS011;5549;47.028;15.514;2023-12-20T09:42:01;8.38;;;2.20;;
10991;SDS011;5549;47.028;15.514;2023-12-20T09:44:30;5.75;;;2.00;;
10991;SDS011;5549;47.028;15.514;2023-12-20T09:46:58;6.68;;;2.08;;
10991;SDS011;5549;47.028;15.514;2023-12-20T09:49:29;9.23;;;2.35;;
10991;SDS011;5549;47.028;15.514;2023-12-20T09:51:57;4.38;;;1.90;;
10991;SDS011;5549;47.028;15.514;2023-12-20T09:54:27;6.50;;;2.45;;
10991;SDS011;5549;47.028;15.514;2023-12-20T09:56:56;9.13;;;3.58;;
10991;SDS011;5549;47.028;15.514;2023-12-20T09:59:23;8.45;;;3.10;;
10991;SDS011;5549;47.028;15.514;2023-12-20T10:01:51;7.10;;;2.42;;
10991;SDS011;5549;47.028;15.514;2023-12-20T10:04:21;5.18;;;1.73;;
10991;SDS011;5549;47.028;15.514;2023-12-20T10:06:50;5.32;;;1.60;;
10991;SDS011;5549;47.028;15.514;2023-12-20T10:09:17;6.75;;;1.95;;
10991;SDS011;5549;47.028;15.514;2023-12-20T10:11:45;5.70;;;2.33;;
10991;SDS011;5549;47.028;15.514;2023-12-20T10:14:12;6.97;;;1.90;;
10991;SDS011;5549;47.028;15.514;2023-12-20T10:16:40;7.63;;;2.42;;
10991;SDS011;5549;47.028;15.514;2023-12-20T10:19:08;7.38;;;2.83;;
10991;SDS011;5549;47.028;15.514;2023-12-20T10:21:35;7.13;;;2.50;;
10991;SDS011;5549;47.028;15.514;2023-12-20T10:24:04;6.32;;;2.20;;
10991;SDS011;5549;47.028;15.514;2023-12-20T10:26:33;6.53;;;2.38;;
10991;SDS011;5549;47.028;15.514;2023-12-20T10:29:00;5.30;;;1.98;;
10991;SDS011;5549;47.028;15.514;2023-12-20T10:31:30;5.35;;;2.08;;
10991;SDS011;5549;47.028;15.514;2023-12-20T10:33:59;7.70;;;2.58;;
10991;SDS011;5549;47.028;15.514;2023-12-20T10:36:29;7.45;;;1.92;;
10991;SDS011;5549;47.028;15.514;2023-12-20T10:39:00;4.88;;;2.00;;
10991;SDS011;5549;47.028;15.514;2023-12-20T10:41:31;4.00;;;1.42;;
10991;SDS011;5549;47.028;15.514;2023-12-20T10:44:01;5.13;;;1.98;;
10991;SDS011;5549;47.028;15.514;2023-12-20T10:46:30;6.85;;;1.98;;
10991;SDS011;5549;47.028;15.514;2023-12-20T10:48:58;4.43;;;1.83;;
10991;SDS011;5549;47.028;15.514;2023-12-20T10:51:30;7.35;;;2.22;;
10991;SDS011;5549;47.028;15.514;2023-12-20T10:54:00;4.85;;;2.00;;
10991;SDS011;5549;47.028;15.514;2023-12-20T10:56:29;5.07;;;1.92;;
10991;SDS011;5549;47.028;15.514;2023-12-20T10:59:02;5.07;;;1.75;;
10991;SDS011;5549;47.028;15.514;2023-12-20T11:01:31;3.97;;;1.50;;
10991;SDS011;5549;47.028;15.514;2023-12-20T11:04:00;4.95;;;1.40;;
10991;SDS011;5549;47.028;15.514;2023-12-20T11:06:33;6.00;;;2.10;;
10991;SDS011;5549;47.028;15.514;2023-12-20T11:09:10;6.47;;;1.83;;
10991;SDS011;5549;47.028;15.514;2023-12-20T11:14:35;4.20;;;1.73;;
10991;SDS011;5549;47.028;15.514;2023-12-20T11:17:08;6.80;;;1.85;;
10991;SDS011;5549;47.028;15.514;2023-12-20T11:19:43;4.88;;;1.65;;
10991;SDS011;5549;47.028;15.514;2023-12-20T11:22:36;4.97;;;1.92;;
10991;SDS011;5549;47.028;15.514;2023-12-20T11:25:08;6.07;;;1.95;;
10991;SDS011;5549;47.028;15.514;2023-12-20T11:27:41;6.97;;;2.78;;
10991;SDS011;5549;47.028;15.514;2023-12-20T11:30:10;7.30;;;1.95;;
10991;SDS011;5549;47.028;15.514;2023-12-20T11:32:40;7.05;;;2.10;;
10991;SDS011;5549;47.028;15.514;2023-12-20T11:35:20;6.25;;;1.77;;
10991;SDS011;5549;47.028;15.514;2023-12-20T11:37:49;5.43;;;2.00;;
10991;SDS011;5549;47.028;15.514;2023-12-20T11:40:18;3.83;;;1.55;;
10991;SDS011;5549;47.028;15.514;2023-12-20T11:42:49;3.13;;;0.77;;
10991;SDS011;5549;47.028;15.514;2023-12-20T11:45:19;3.13;;;0.80;;
10991;SDS011;5549;47.028;15.514;2023-12-20T11:47:51;3.85;;;1.25;;
10991;SDS011;5549;47.028;15.514;2023-12-20T11:50:21;4.78;;;1.70;;
10991;SDS011;5549;47.028;15.514;2023-12-20T11:52:50;5.55;;;1.98;;
10991;SDS011;5549;47.028;15.514;2023-12-20T11:55:19;5.22;;;2.25;;
10991;SDS011;5549;47.028;15.514;2023-12-20T11:57:47;3.70;;;1.38;;
10991;SDS011;5549;47.028;15.514;2023-12-20T12:00:16;6.53;;;1.77;;
10991;SDS011;5549;47.028;15.514;2023-12-20T12:02:54;8.60;;;2.05;;
10991;SDS011;5549;47.028;15.514;2023-12-20T12:05:24;5.80;;;2.15;;
10991;SDS011;5549;47.028;15.514;2023-12-20T12:07:52;4.28;;;1.17;;
10991;SDS011;5549;47.028;15.514;2023-12-20T12:10:21;3.92;;;1.52;;
10991;SDS011;5549;47.028;15.514;2023-12-20T12:12:50;5.28;;;1.92;;
10991;SDS011;5549;47.028;15.514;2023-12-20T12:15:18;4.25;;;1.15;;
10991;SDS011;5549;47.028;15.514;2023-12-20T12:17:52;4.78;;;1.20;;
10991;SDS011;5549;47.028;15.514;2023-12-20T12:20:21;2.58;;;1.00;;
10991;SDS011;5549;47.028;15.514;2023-12-20T12:22:57;2.78;;;0.82;;
10991;SDS011;5549;47.028;15.514;2023-12-20T12:25:26;3.33;;;0.85;;
10991;SDS011;5549;47.028;15.514;2023-12-20T12:27:56;3.88;;;0.85;;
10991;SDS011;5549;47.028;15.514;2023-12-20T12:30:26;2.65;;;0.85;;
10991;SDS011;5549;47.028;15.514;2023-12-20T12:32:55;3.58;;;0.90;;
10991;SDS011;5549;47.028;15.514;2023-12-20T12:35:25;4.00;;;0.88;;
10991;SDS011;5549;47.028;15.514;2023-12-20T12:37:55;3.30;;;0.82;;
10991;SDS011;5549;47.028;15.514;2023-12-20T12:40:28;2.75;;;0.77;;
10991;SDS011;5549;47.028;15.514;2023-12-20T12:42:57;3.13;;;1.08;;
10991;SDS011;5549;47.028;15.514;2023-12-20T12:45:27;3.30;;;1.20;;
10991;SDS011;5549;47.028;15.514;2023-12-20T12:47:55;4.60;;;1.50;;
10991;SDS011;5549;47.028;15.514;2023-12-20T12:50:23;2.85;;;1.00;;
10991;SDS011;5549;47.028;15.514;2023-12-20T12:52:53;4.18;;;1.23;;
10991;SDS011;5549;47.028;15.514;2023-12-20T12:55:21;6.38;;;1.25;;
10991;SDS011;5549;47.028;15.514;2023-12-20T12:57:48;3.25;;;0.90;;
10991;SDS011;5549;47.028;15.514;2023-12-20T13:00:18;3.60;;;1.08;;
10991;SDS011;5549;47.028;15.514;2023-12-20T13:02:47;3.72;;;1.15;;
10991;SDS011;5549;47.028;15.514;2023-12-20T13:05:14;3.83;;;1.40;;
10991;SDS011;5549;47.028;15.514;2023-12-20T13:07:43;6.07;;;1.33;;
10991;SDS011;5549;47.028;15.514;2023-12-20T13:10:11;6.07;;;2.00;;
10991;SDS011;5549;47.028;15.514;2023-12-20T13:12:41;7.22;;;1.98;;
10991;SDS011;5549;47.028;15.514;2023-12-20T13:15:09;5.75;;;1.80;;
10991;SDS011;5549;47.028;15.514;2023-12-20T13:17:38;5.55;;;1.90;;
10991;SDS011;5549;47.028;15.514;2023-12-20T13:20:06;6.65;;;1.58;;
10991;SDS011;5549;47.028;15.514;2023-12-20T13:22:35;4.68;;;1.25;;
10991;SDS011;5549;47.028;15.514;2023-12-20T13:25:02;4.63;;;1.50;;
10991;SDS011;5549;47.028;15.514;2023-12-20T13:27:31;3.45;;;0.95;;
10991;SDS011;5549;47.028;15.514;2023-12-20T13:30:01;4.00;;;1.02;;
10991;SDS011;5549;47.028;15.514;2023-12-20T13:32:31;3.65;;;0.85;;
10991;SDS011;5549;47.028;15.514;2023-12-20T13:35:02;4.45;;;1.48;;
10991;SDS011;5549;47.028;15.514;2023-12-20T13:37:30;4.53;;;1.25;;
10991;SDS011;5549;47.028;15.514;2023-12-20T13:39:58;3.38;;;1.10;;
10991;SDS011;5549;47.028;15.514;2023-12-20T13:42:25;3.42;;;0.90;;
10991;SDS011;5549;47.028;15.514;2023-12-20T13:44:53;4.65;;;1.42;;
10991;SDS011;5549;47.028;15.514;2023-12-20T13:47:21;5.35;;;1.90;;
10991;SDS011;5549;47.028;15.514;2023-12-20T13:49:49;6.03;;;1.58;;
10991;SDS011;5549;47.028;15.514;2023-12-20T13:52:17;3.97;;;1.30;;
10991;SDS011;5549;47.028;15.514;2023-12-20T13:54:45;3.25;;;1.08;;
10991;SDS011;5549;47.028;15.514;2023-12-20T13:57:15;3.63;;;1.30;;
10991;SDS011;5549;47.028;15.514;2023-12-20T13:59:45;4.28;;;1.20;;
10991;SDS011;5549;47.028;15.514;2023-12-20T14:02:12;5.07;;;1.25;;
10991;SDS011;5549;47.028;15.514;2023-12-20T14:04:41;4.40;;;1.00;;
10991;SDS011;5549;47.028;15.514;2023-12-20T14:07:09;2.30;;;0.50;;
10991;SDS011;5549;47.028;15.514;2023-12-20T14:09:38;2.95;;;0.68;;
10991;SDS011;5549;47.028;15.514;2023-12-20T14:12:10;4.40;;;0.93;;
10991;SDS011;5549;47.028;15.514;2023-12-20T14:14:38;4.47;;;1.42;;
10991;SDS011;5549;47.028;15.514;2023-12-20T14:17:05;2.33;;;0.65;;
10991;SDS011;5549;47.028;15.514;2023-12-20T14:19:33;3.30;;;1.00;;
10991;SDS011;5549;47.028;15.514;2023-12-20T14:22:00;3.08;;;1.08;;
10991;SDS011;5549;47.028;15.514;2023-12-20T14:24:29;6.03;;;1.27;;
10991;SDS011;5549;47.028;15.514;2023-12-20T14:26:59;4.78;;;1.50;;
10991;SDS011;5549;47.028;15.514;2023-12-20T14:29:27;2.58;;;0.60;;
10991;SDS011;5549;47.028;15.514;2023-12-20T14:31:57;1.70;;;0.47;;
10991;SDS011;5549;47.028;15.514;2023-12-20T14:34:26;1.45;;;0.40;;
10991;SDS011;5549;47.028;15.514;2023-12-20T14:36:56;2.40;;;0.32;;
10991;SDS011;5549;47.028;15.514;2023-12-20T14:39:24;2.20;;;0.43;;
10991;SDS011;5549;47.028;15.514;2023-12-20T14:41:51;3.97;;;0.57;;
10991;SDS011;5549;47.028;15.514;2023-12-20T14:44:21;2.90;;;0.52;;
10991;SDS011;5549;47.028;15.514;2023-12-20T14:46:49;2.05;;;0.43;;
10991;SDS011;5549;47.028;15.514;2023-12-20T14:49:17;1.60;;;0.30;;
10991;SDS011;5549;47.028;15.514;2023-12-20T14:51:44;1.52;;;0.30;;
10991;SDS011;5549;47.028;15.514;2023-12-20T14:54:13;2.42;;;0.43;;
10991;SDS011;5549;47.028;15.514;2023-12-20T14:56:40;1.75;;;0.30;;
10991;SDS011;5549;47.028;15.514;2023-12-20T14:59:08;1.42;;;0.38;;
10991;SDS011;5549;47.028;15.514;2023-12-20T15:01:37;1.50;;;0.28;;
10991;SDS011;5549;47.028;15.514;2023-12-20T15:04:08;1.42;;;0.20;;
10991;SDS011;5549;47.028;15.514;2023-12-20T15:06:35;2.88;;;0.40;;